PWSweather.com
Personal Weather Stations
Station Observations
WD4JKH
Forsyth, GA 31029

Forsyth, GA 31029

Lat: 33.033225, Lon: -83.927995

Elevation: 709

Station Type: Davis Vantage VUE

High Low Average
Temperature 43.8°F6.6°C 25.9°F-3.4°C 34.1°F1.2°C
Dew Point 23.5°F-4.7°C 14.7°F-9.6°C 18.7°F-7.4°C
Winds 8.7 mph 14.0 kmh 1.0 mph 1.6 kmh 3.0 mph S4.8 kmh S
Wind Gusts 16.0 mph25.7 kmh 2.0 mph3.2 kmh 8.0 mph12.9 kmh
Humidity 71% 38% 54%
Pressure 30.49 in1032.5 mb 30.22 in1023.4 mb -
Precipitation 0.01 in0.3 mm - -
Hour Temp Dew Point Humidity Winds Wind Gusts Pressure Precip Precip Rate Daily Precip Total
12:00 AM 31.7°F-0.2°C 21.7°F-5.7°C 66% 4.6 mph WNW7.4 kmh WNW 9.0 mph14.5 kmh 30.22 in1023.4 mb 0.00 in0.0 mm 0.00 in0.0 mm 0.01 in0.3 mm
12:05 AM 31.6°F-0.2°C 21.6°F-5.8°C 66% 2.8 mph NW4.5 kmh NW 11.0 mph17.7 kmh 30.22 in1023.4 mb 0.00 in0.0 mm 0.00 in0.0 mm 0.01 in0.3 mm
12:10 AM 31.5°F-0.3°C 21.5°F-5.8°C 66% 3.5 mph WNW5.6 kmh WNW 11.0 mph17.7 kmh 30.22 in1023.4 mb 0.00 in0.0 mm 0.00 in0.0 mm 0.01 in0.3 mm
12:15 AM 31.4°F-0.3°C 21.8°F-5.7°C 67% 1.7 mph WNW2.7 kmh WNW 11.0 mph17.7 kmh 30.22 in1023.4 mb 0.00 in0.0 mm 0.00 in0.0 mm 0.01 in0.3 mm
12:20 AM 31.3°F-0.4°C 21.7°F-5.7°C 67% 3.6 mph WNW5.8 kmh WNW 13.0 mph20.9 kmh 30.23 in1023.7 mb 0.00 in0.0 mm 0.00 in0.0 mm 0.01 in0.3 mm
12:25 AM 31.2°F-0.4°C 21.6°F-5.8°C 67% 3.6 mph NW5.8 kmh NW 13.0 mph20.9 kmh 30.23 in1023.7 mb 0.00 in0.0 mm 0.00 in0.0 mm 0.01 in0.3 mm
12:30 AM 31.1°F-0.5°C 21.5°F-5.8°C 67% 2.5 mph NW4.0 kmh NW 13.0 mph20.9 kmh 30.23 in1023.7 mb 0.00 in0.0 mm 0.00 in0.0 mm 0.01 in0.3 mm
12:35 AM 31.0°F-0.6°C 21.4°F-5.9°C 67% 4.0 mph NW6.4 kmh NW 11.0 mph17.7 kmh 30.23 in1023.7 mb 0.00 in0.0 mm 0.00 in0.0 mm 0.01 in0.3 mm
12:40 AM 30.9°F-0.6°C 21.3°F-5.9°C 67% 2.6 mph WNW4.2 kmh WNW 9.0 mph14.5 kmh 30.23 in1023.7 mb 0.00 in0.0 mm 0.00 in0.0 mm 0.01 in0.3 mm
12:45 AM 30.8°F-0.7°C 21.5°F-5.8°C 68% 3.1 mph WNW5.0 kmh WNW 9.0 mph14.5 kmh 30.23 in1023.7 mb 0.00 in0.0 mm 0.00 in0.0 mm 0.01 in0.3 mm
12:50 AM 30.8°F-0.7°C 21.2°F-6.0°C 67% 4.1 mph WNW6.6 kmh WNW 13.0 mph20.9 kmh 30.22 in1023.4 mb 0.00 in0.0 mm 0.00 in0.0 mm 0.01 in0.3 mm
12:55 AM 30.7°F-0.7°C 21.5°F-5.8°C 68% 2.8 mph NW4.5 kmh NW 13.0 mph20.9 kmh 30.23 in1023.7 mb 0.00 in0.0 mm 0.00 in0.0 mm 0.01 in0.3 mm
01:00 AM 30.6°F-0.8°C 21.3°F-5.9°C 68% 3.1 mph NW5.0 kmh NW 13.0 mph20.9 kmh 30.22 in1023.4 mb 0.00 in0.0 mm 0.00 in0.0 mm 0.01 in0.3 mm
01:05 AM 30.5°F-0.8°C 21.3°F-5.9°C 68% 1.7 mph WNW2.7 kmh WNW 13.0 mph20.9 kmh 30.22 in1023.4 mb 0.00 in0.0 mm 0.00 in0.0 mm 0.00 in0.0 mm
01:10 AM 30.4°F-0.9°C 21.2°F-6.0°C 68% 3.1 mph WNW5.0 kmh WNW 10.0 mph16.1 kmh 30.23 in1023.7 mb 0.00 in0.0 mm 0.00 in0.0 mm 0.00 in0.0 mm
01:15 AM 30.4°F-0.9°C 21.2°F-6.0°C 68% 3.8 mph NW6.1 kmh NW 10.0 mph16.1 kmh 30.23 in1023.7 mb 0.00 in0.0 mm 0.00 in0.0 mm 0.00 in0.0 mm
01:20 AM 30.3°F-0.9°C 21.3°F-5.9°C 69% 1.5 mph NW2.4 kmh NW 9.0 mph14.5 kmh 30.23 in1023.7 mb 0.00 in0.0 mm 0.00 in0.0 mm 0.00 in0.0 mm
01:25 AM 30.2°F-1.0°C 21.3°F-5.9°C 69% 2.3 mph NW3.7 kmh NW 9.0 mph14.5 kmh 30.23 in1023.7 mb 0.00 in0.0 mm 0.00 in0.0 mm 0.00 in0.0 mm
01:30 AM 30.1°F-1.1°C 21.2°F-6.0°C 69% 2.3 mph NW3.7 kmh NW 8.0 mph12.9 kmh 30.23 in1023.7 mb 0.00 in0.0 mm 0.00 in0.0 mm 0.00 in0.0 mm
01:35 AM 30.1°F-1.1°C 21.2°F-6.0°C 69% 3.2 mph WNW5.1 kmh WNW 8.0 mph12.9 kmh 30.23 in1023.7 mb 0.00 in0.0 mm 0.00 in0.0 mm 0.00 in0.0 mm
01:40 AM 30.0°F-1.1°C 21.1°F-6.1°C 69% 2.9 mph NW4.7 kmh NW 8.0 mph12.9 kmh 30.24 in1024.0 mb 0.00 in0.0 mm 0.00 in0.0 mm 0.00 in0.0 mm
01:45 AM 30.0°F-1.1°C 21.1°F-6.1°C 69% 2.2 mph NW3.5 kmh NW 8.0 mph12.9 kmh 30.24 in1024.0 mb 0.00 in0.0 mm 0.00 in0.0 mm 0.00 in0.0 mm
01:50 AM 29.9°F-1.2°C 21.0°F-6.1°C 69% 2.3 mph NW3.7 kmh NW 8.0 mph12.9 kmh 30.23 in1023.7 mb 0.00 in0.0 mm 0.00 in0.0 mm 0.00 in0.0 mm
01:55 AM 29.8°F-1.2°C 20.9°F-6.2°C 69% 3.4 mph NW5.5 kmh NW 8.0 mph12.9 kmh 30.23 in1023.7 mb 0.00 in0.0 mm 0.00 in0.0 mm 0.00 in0.0 mm
02:00 AM 29.7°F-1.3°C 21.2°F-6.0°C 70% 2.3 mph NW3.7 kmh NW 8.0 mph12.9 kmh 30.23 in1023.7 mb 0.00 in0.0 mm 0.00 in0.0 mm 0.00 in0.0 mm
02:05 AM 29.6°F-1.3°C 21.1°F-6.1°C 70% 1.5 mph NW2.4 kmh NW 8.0 mph12.9 kmh 30.23 in1023.7 mb 0.00 in0.0 mm 0.00 in0.0 mm 0.00 in0.0 mm
02:10 AM 29.5°F-1.4°C 20.9°F-6.2°C 70% 1.6 mph NW2.6 kmh NW 8.0 mph12.9 kmh 30.23 in1023.7 mb 0.00 in0.0 mm 0.00 in0.0 mm 0.00 in0.0 mm
02:15 AM 29.5°F-1.4°C 21.0°F-6.1°C 70% 2.0 mph NW3.2 kmh NW 6.0 mph9.7 kmh 30.24 in1024.0 mb 0.00 in0.0 mm 0.00 in0.0 mm 0.00 in0.0 mm
02:20 AM 29.4°F-1.4°C 21.2°F-6.0°C 71% 2.8 mph NW4.5 kmh NW 5.0 mph8.0 kmh 30.24 in1024.0 mb 0.00 in0.0 mm 0.00 in0.0 mm 0.00 in0.0 mm
02:25 AM 29.4°F-1.4°C 21.2°F-6.0°C 71% 1.5 mph W2.4 kmh W 9.0 mph14.5 kmh 30.24 in1024.0 mb 0.00 in0.0 mm 0.00 in0.0 mm 0.00 in0.0 mm
02:30 AM 29.4°F-1.4°C 20.9°F-6.2°C 70% 3.9 mph WNW6.3 kmh WNW 9.0 mph14.5 kmh 30.24 in1024.0 mb 0.00 in0.0 mm 0.00 in0.0 mm 0.00 in0.0 mm
02:35 AM 29.3°F-1.5°C 20.8°F-6.2°C 70% 3.9 mph WNW6.3 kmh WNW 9.0 mph14.5 kmh 30.24 in1024.0 mb 0.00 in0.0 mm 0.00 in0.0 mm 0.00 in0.0 mm
02:40 AM 29.3°F-1.5°C 20.7°F-6.3°C 70% 1.6 mph W2.6 kmh W 9.0 mph14.5 kmh 30.24 in1024.0 mb 0.00 in0.0 mm 0.00 in0.0 mm 0.00 in0.0 mm
02:45 AM 29.2°F-1.6°C 20.6°F-6.3°C 70% 1.5 mph WNW2.4 kmh WNW 9.0 mph14.5 kmh 30.25 in1024.4 mb 0.00 in0.0 mm 0.00 in0.0 mm 0.00 in0.0 mm
02:50 AM 29.1°F-1.6°C 20.9°F-6.2°C 71% 2.7 mph NW4.3 kmh NW 9.0 mph14.5 kmh 30.25 in1024.4 mb 0.00 in0.0 mm 0.00 in0.0 mm 0.00 in0.0 mm
02:55 AM 29.2°F-1.6°C 20.7°F-6.3°C 70% 2.5 mph NW4.0 kmh NW 9.0 mph14.5 kmh 30.25 in1024.4 mb 0.00 in0.0 mm 0.00 in0.0 mm 0.00 in0.0 mm
03:00 AM 29.2°F-1.6°C 20.6°F-6.3°C 70% 3.6 mph WNW5.8 kmh WNW 9.0 mph14.5 kmh 30.25 in1024.4 mb 0.00 in0.0 mm 0.00 in0.0 mm 0.00 in0.0 mm
03:05 AM 29.1°F-1.6°C 20.5°F-6.4°C 70% 1.8 mph NW2.9 kmh NW 9.0 mph14.5 kmh 30.25 in1024.4 mb 0.00 in0.0 mm 0.00 in0.0 mm 0.00 in0.0 mm
03:10 AM 29.1°F-1.6°C 20.6°F-6.3°C 70% 2.6 mph WNW4.2 kmh WNW 8.0 mph12.9 kmh 30.25 in1024.4 mb 0.00 in0.0 mm 0.00 in0.0 mm 0.00 in0.0 mm
03:15 AM 29.0°F-1.7°C 20.5°F-6.4°C 70% 2.6 mph WNW4.2 kmh WNW 8.0 mph12.9 kmh 30.25 in1024.4 mb 0.00 in0.0 mm 0.00 in0.0 mm 0.00 in0.0 mm
03:20 AM 28.9°F-1.7°C 20.3°F-6.5°C 70% 3.0 mph WNW4.8 kmh WNW 7.0 mph11.3 kmh 30.25 in1024.4 mb 0.00 in0.0 mm 0.00 in0.0 mm 0.00 in0.0 mm
03:25 AM 28.9°F-1.7°C 20.4°F-6.4°C 70% 2.7 mph WNW4.3 kmh WNW 7.0 mph11.3 kmh 30.25 in1024.4 mb 0.00 in0.0 mm 0.00 in0.0 mm 0.00 in0.0 mm
03:30 AM 28.9°F-1.7°C 20.1°F-6.6°C 69% 2.4 mph NW3.9 kmh NW 7.0 mph11.3 kmh 30.25 in1024.4 mb 0.00 in0.0 mm 0.00 in0.0 mm 0.00 in0.0 mm
03:35 AM 28.9°F-1.7°C 20.0°F-6.7°C 69% 1.6 mph NW2.6 kmh NW 8.0 mph12.9 kmh 30.25 in1024.4 mb 0.00 in0.0 mm 0.00 in0.0 mm 0.00 in0.0 mm
03:40 AM 28.8°F-1.8°C 20.0°F-6.7°C 69% 2.3 mph NW3.7 kmh NW 8.0 mph12.9 kmh 30.26 in1024.7 mb 0.00 in0.0 mm 0.00 in0.0 mm 0.00 in0.0 mm
03:45 AM 28.8°F-1.8°C 20.0°F-6.7°C 69% 2.7 mph NW4.3 kmh NW 8.0 mph12.9 kmh 30.26 in1024.7 mb 0.00 in0.0 mm 0.00 in0.0 mm 0.00 in0.0 mm
03:50 AM 28.8°F-1.8°C 19.9°F-6.7°C 69% 2.6 mph NW4.2 kmh NW 6.0 mph9.7 kmh 30.26 in1024.7 mb 0.00 in0.0 mm 0.00 in0.0 mm 0.00 in0.0 mm
03:55 AM 28.7°F-1.8°C 19.9°F-6.7°C 69% 3.5 mph NW5.6 kmh NW 7.0 mph11.3 kmh 30.26 in1024.7 mb 0.00 in0.0 mm 0.00 in0.0 mm 0.00 in0.0 mm
04:00 AM 28.6°F-1.9°C 20.1°F-6.6°C 70% 2.2 mph NW3.5 kmh NW 7.0 mph11.3 kmh 30.26 in1024.7 mb 0.00 in0.0 mm 0.00 in0.0 mm 0.00 in0.0 mm
04:05 AM 28.6°F-1.9°C 19.7°F-6.8°C 69% 2.5 mph NW4.0 kmh NW 7.0 mph11.3 kmh 30.26 in1024.7 mb 0.00 in0.0 mm 0.00 in0.0 mm 0.00 in0.0 mm
04:10 AM 28.5°F-1.9°C 19.3°F-7.1°C 68% 1.9 mph WNW3.1 kmh WNW 7.0 mph11.3 kmh 30.25 in1024.4 mb 0.00 in0.0 mm 0.00 in0.0 mm 0.00 in0.0 mm
04:15 AM 28.5°F-1.9°C 19.0°F-7.2°C 67% 1.9 mph NW3.1 kmh NW 6.0 mph9.7 kmh 30.26 in1024.7 mb 0.00 in0.0 mm 0.00 in0.0 mm 0.00 in0.0 mm
04:20 AM 28.5°F-1.9°C 18.9°F-7.3°C 67% 1.4 mph NW2.3 kmh NW 6.0 mph9.7 kmh 30.26 in1024.7 mb 0.00 in0.0 mm 0.00 in0.0 mm 0.00 in0.0 mm
04:25 AM 28.4°F-2.0°C 18.5°F-7.5°C 66% 2.3 mph NW3.7 kmh NW 7.0 mph11.3 kmh 30.26 in1024.7 mb 0.00 in0.0 mm 0.00 in0.0 mm 0.00 in0.0 mm
04:30 AM 28.4°F-2.0°C 18.5°F-7.5°C 66% 2.2 mph NW3.5 kmh NW 7.0 mph11.3 kmh 30.27 in1025.1 mb 0.00 in0.0 mm 0.00 in0.0 mm 0.00 in0.0 mm
04:35 AM 28.3°F-2.1°C 18.4°F-7.6°C 66% 1.0 mph W1.6 kmh W 7.0 mph11.3 kmh 30.27 in1025.1 mb 0.00 in0.0 mm 0.00 in0.0 mm 0.00 in0.0 mm
04:40 AM 28.3°F-2.1°C 18.5°F-7.5°C 66% 2.7 mph WNW4.3 kmh WNW 7.0 mph11.3 kmh 30.27 in1025.1 mb 0.00 in0.0 mm 0.00 in0.0 mm 0.00 in0.0 mm
04:45 AM 28.2°F-2.1°C 18.4°F-7.6°C 66% 2.0 mph WNW3.2 kmh WNW 5.0 mph8.0 kmh 30.27 in1025.1 mb 0.00 in0.0 mm 0.00 in0.0 mm 0.00 in0.0 mm
04:50 AM 28.2°F-2.1°C 18.4°F-7.6°C 66% 1.4 mph WNW2.3 kmh WNW 5.0 mph8.0 kmh 30.27 in1025.1 mb 0.00 in0.0 mm 0.00 in0.0 mm 0.00 in0.0 mm
04:55 AM 28.1°F-2.2°C 18.9°F-7.3°C 68% 2.4 mph WNW3.9 kmh WNW 5.0 mph8.0 kmh 30.27 in1025.1 mb 0.00 in0.0 mm 0.00 in0.0 mm 0.00 in0.0 mm
05:00 AM 28.0°F-2.2°C 18.9°F-7.3°C 68% 2.0 mph WNW3.2 kmh WNW 6.0 mph9.7 kmh 30.28 in1025.4 mb 0.00 in0.0 mm 0.00 in0.0 mm 0.00 in0.0 mm
05:05 AM 28.0°F-2.2°C 19.2°F-7.1°C 69% 3.6 mph WNW5.8 kmh WNW 6.0 mph9.7 kmh 30.28 in1025.4 mb 0.00 in0.0 mm 0.00 in0.0 mm 0.00 in0.0 mm
05:10 AM 27.9°F-2.3°C 18.8°F-7.3°C 68% 2.8 mph NW4.5 kmh NW 6.0 mph9.7 kmh 30.28 in1025.4 mb 0.00 in0.0 mm 0.00 in0.0 mm 0.00 in0.0 mm
05:15 AM 27.9°F-2.3°C 18.4°F-7.6°C 67% 2.3 mph WNW3.7 kmh WNW 7.0 mph11.3 kmh 30.28 in1025.4 mb 0.00 in0.0 mm 0.00 in0.0 mm 0.00 in0.0 mm
05:19 AM 27.8°F-2.3°C 18.0°F-7.8°C 66% 2.7 mph NW4.3 kmh NW 9.0 mph14.5 kmh 30.28 in1025.4 mb 0.00 in0.0 mm 0.00 in0.0 mm 0.00 in0.0 mm
05:24 AM 27.8°F-2.3°C 17.6°F-8.0°C 65% 2.8 mph NW4.5 kmh NW 9.0 mph14.5 kmh 30.28 in1025.4 mb 0.00 in0.0 mm 0.00 in0.0 mm 0.00 in0.0 mm
05:29 AM 27.8°F-2.3°C 16.9°F-8.4°C 63% 5.3 mph NW8.5 kmh NW 11.0 mph17.7 kmh 30.28 in1025.4 mb 0.00 in0.0 mm 0.00 in0.0 mm 0.00 in0.0 mm
05:34 AM 27.8°F-2.3°C 16.5°F-8.6°C 62% 3.8 mph NW6.1 kmh NW 11.0 mph17.7 kmh 30.28 in1025.4 mb 0.00 in0.0 mm 0.00 in0.0 mm 0.00 in0.0 mm
05:39 AM 27.8°F-2.3°C 16.1°F-8.8°C 61% 3.6 mph WNW5.8 kmh WNW 11.0 mph17.7 kmh 30.28 in1025.4 mb 0.00 in0.0 mm 0.00 in0.0 mm 0.00 in0.0 mm
05:44 AM 27.8°F-2.3°C 16.1°F-8.8°C 61% 2.1 mph WNW3.4 kmh WNW 11.0 mph17.7 kmh 30.28 in1025.4 mb 0.00 in0.0 mm 0.00 in0.0 mm 0.00 in0.0 mm
05:49 AM 27.7°F-2.4°C 16.0°F-8.9°C 61% 1.5 mph NW2.4 kmh NW 8.0 mph12.9 kmh 30.28 in1025.4 mb 0.00 in0.0 mm 0.00 in0.0 mm 0.00 in0.0 mm
05:54 AM 27.6°F-2.4°C 15.9°F-8.9°C 61% 2.3 mph NW3.7 kmh NW 6.0 mph9.7 kmh 30.28 in1025.4 mb 0.00 in0.0 mm 0.00 in0.0 mm 0.00 in0.0 mm
05:59 AM 27.5°F-2.5°C 15.4°F-9.2°C 60% 2.4 mph NW3.9 kmh NW 6.0 mph9.7 kmh 30.29 in1025.7 mb 0.00 in0.0 mm 0.00 in0.0 mm 0.00 in0.0 mm
06:04 AM 27.5°F-2.5°C 15.1°F-9.4°C 59% 4.6 mph NW7.4 kmh NW 9.0 mph14.5 kmh 30.29 in1025.7 mb 0.00 in0.0 mm 0.00 in0.0 mm 0.00 in0.0 mm
06:09 AM 27.5°F-2.5°C 15.1°F-9.4°C 59% 3.7 mph NW6.0 kmh NW 9.0 mph14.5 kmh 30.29 in1025.7 mb 0.00 in0.0 mm 0.00 in0.0 mm 0.00 in0.0 mm
06:14 AM 27.4°F-2.6°C 15.0°F-9.4°C 59% 3.9 mph NW6.3 kmh NW 9.0 mph14.5 kmh 30.30 in1026.1 mb 0.00 in0.0 mm 0.00 in0.0 mm 0.00 in0.0 mm
06:19 AM 27.4°F-2.6°C 15.0°F-9.4°C 59% 3.0 mph NW4.8 kmh NW 9.0 mph14.5 kmh 30.30 in1026.1 mb 0.00 in0.0 mm 0.00 in0.0 mm 0.00 in0.0 mm
06:24 AM 27.4°F-2.6°C 15.0°F-9.4°C 59% 3.2 mph NW5.1 kmh NW 10.0 mph16.1 kmh 30.30 in1026.1 mb 0.00 in0.0 mm 0.00 in0.0 mm 0.00 in0.0 mm
06:29 AM 27.3°F-2.6°C 14.9°F-9.5°C 59% 3.9 mph NW6.3 kmh NW 11.0 mph17.7 kmh 30.30 in1026.1 mb 0.00 in0.0 mm 0.00 in0.0 mm 0.00 in0.0 mm
06:34 AM 27.3°F-2.6°C 15.2°F-9.3°C 60% 3.5 mph NW5.6 kmh NW 12.0 mph19.3 kmh 30.30 in1026.1 mb 0.00 in0.0 mm 0.00 in0.0 mm 0.00 in0.0 mm
06:39 AM 27.3°F-2.6°C 15.3°F-9.3°C 60% 3.5 mph NW5.6 kmh NW 12.0 mph19.3 kmh 30.30 in1026.1 mb 0.00 in0.0 mm 0.00 in0.0 mm 0.00 in0.0 mm
06:44 AM 27.2°F-2.7°C 15.2°F-9.3°C 60% 4.4 mph NW7.1 kmh NW 12.0 mph19.3 kmh 30.30 in1026.1 mb 0.00 in0.0 mm 0.00 in0.0 mm 0.00 in0.0 mm
06:49 AM 27.2°F-2.7°C 15.2°F-9.3°C 60% 4.5 mph NW7.2 kmh NW 12.0 mph19.3 kmh 30.30 in1026.1 mb 0.00 in0.0 mm 0.00 in0.0 mm 0.00 in0.0 mm
06:54 AM 27.1°F-2.7°C 14.7°F-9.6°C 59% 3.9 mph NW6.3 kmh NW 13.0 mph20.9 kmh 30.30 in1026.1 mb 0.00 in0.0 mm 0.00 in0.0 mm 0.00 in0.0 mm
06:59 AM 27.1°F-2.7°C 15.1°F-9.4°C 60% 3.3 mph NW5.3 kmh NW 13.0 mph20.9 kmh 30.31 in1026.4 mb 0.00 in0.0 mm 0.00 in0.0 mm 0.00 in0.0 mm
07:04 AM 27.0°F-2.8°C 15.4°F-9.2°C 61% 4.5 mph NW7.2 kmh NW 13.0 mph20.9 kmh 30.31 in1026.4 mb 0.00 in0.0 mm 0.00 in0.0 mm 0.00 in0.0 mm
07:09 AM 26.9°F-2.8°C 15.2°F-9.3°C 61% 3.4 mph NW5.5 kmh NW 13.0 mph20.9 kmh 30.31 in1026.4 mb 0.00 in0.0 mm 0.00 in0.0 mm 0.00 in0.0 mm
07:14 AM 26.8°F-2.9°C 15.6°F-9.1°C 62% 4.7 mph NW7.6 kmh NW 11.0 mph17.7 kmh 30.31 in1026.4 mb 0.00 in0.0 mm 0.00 in0.0 mm 0.00 in0.0 mm
07:19 AM 26.7°F-2.9°C 15.1°F-9.4°C 61% 6.4 mph NW10.3 kmh NW 12.0 mph19.3 kmh 30.31 in1026.4 mb 0.00 in0.0 mm 0.00 in0.0 mm 0.00 in0.0 mm
07:24 AM 26.7°F-2.9°C 15.1°F-9.4°C 61% 4.6 mph NW7.4 kmh NW 14.0 mph22.5 kmh 30.31 in1026.4 mb 0.00 in0.0 mm 0.00 in0.0 mm 0.00 in0.0 mm
07:29 AM 26.6°F-3.0°C 15.4°F-9.2°C 62% 4.8 mph NW7.7 kmh NW 14.0 mph22.5 kmh 30.32 in1026.8 mb 0.00 in0.0 mm 0.00 in0.0 mm 0.00 in0.0 mm
07:34 AM 26.6°F-3.0°C 15.4°F-9.2°C 62% 3.2 mph NW5.1 kmh NW 14.0 mph22.5 kmh 30.33 in1027.1 mb 0.00 in0.0 mm 0.00 in0.0 mm 0.00 in0.0 mm
07:39 AM 26.5°F-3.1°C 15.3°F-9.3°C 62% 3.9 mph NW6.3 kmh NW 14.0 mph22.5 kmh 30.32 in1026.8 mb 0.00 in0.0 mm 0.00 in0.0 mm 0.00 in0.0 mm
07:44 AM 26.5°F-3.1°C 15.3°F-9.3°C 62% 2.8 mph NW4.5 kmh NW 14.0 mph22.5 kmh 30.32 in1026.8 mb 0.00 in0.0 mm 0.00 in0.0 mm 0.00 in0.0 mm
07:49 AM 26.4°F-3.1°C 15.2°F-9.3°C 62% 4.4 mph NW7.1 kmh NW 14.0 mph22.5 kmh 30.33 in1027.1 mb 0.00 in0.0 mm 0.00 in0.0 mm 0.00 in0.0 mm
07:54 AM 26.3°F-3.2°C 15.1°F-9.4°C 62% 3.2 mph NNW5.1 kmh NNW 14.0 mph22.5 kmh 30.33 in1027.1 mb 0.00 in0.0 mm 0.00 in0.0 mm 0.00 in0.0 mm
07:59 AM 26.3°F-3.2°C 15.1°F-9.4°C 62% 3.8 mph NW6.1 kmh NW 14.0 mph22.5 kmh 30.33 in1027.1 mb 0.00 in0.0 mm 0.00 in0.0 mm 0.00 in0.0 mm
08:04 AM 26.2°F-3.2°C 14.9°F-9.5°C 62% 2.9 mph NNW4.7 kmh NNW 12.0 mph19.3 kmh 30.33 in1027.1 mb 0.00 in0.0 mm 0.00 in0.0 mm 0.00 in0.0 mm
08:09 AM 26.2°F-3.2°C 15.0°F-9.4°C 62% 4.1 mph NW6.6 kmh NW 12.0 mph19.3 kmh 30.33 in1027.1 mb 0.00 in0.0 mm 0.00 in0.0 mm 0.00 in0.0 mm
08:14 AM 26.2°F-3.2°C 15.0°F-9.4°C 62% 2.3 mph NNW3.7 kmh NNW 12.0 mph19.3 kmh 30.34 in1027.4 mb 0.00 in0.0 mm 0.00 in0.0 mm 0.00 in0.0 mm
08:19 AM 26.1°F-3.3°C 14.9°F-9.5°C 62% 5.3 mph NW8.5 kmh NW 11.0 mph17.7 kmh 30.34 in1027.4 mb 0.00 in0.0 mm 0.00 in0.0 mm 0.00 in0.0 mm
08:24 AM 26.1°F-3.3°C 14.8°F-9.6°C 62% 6.1 mph NW9.8 kmh NW 16.0 mph25.7 kmh 30.34 in1027.4 mb 0.00 in0.0 mm 0.00 in0.0 mm 0.00 in0.0 mm
08:29 AM 26.0°F-3.3°C 15.2°F-9.3°C 63% 3.0 mph NW4.8 kmh NW 16.0 mph25.7 kmh 30.34 in1027.4 mb 0.00 in0.0 mm 0.00 in0.0 mm 0.00 in0.0 mm
08:34 AM 25.9°F-3.4°C 15.1°F-9.4°C 63% 5.5 mph NNW8.9 kmh NNW 16.0 mph25.7 kmh 30.35 in1027.8 mb 0.00 in0.0 mm 0.00 in0.0 mm 0.00 in0.0 mm
08:39 AM 25.9°F-3.4°C 15.1°F-9.4°C 63% 4.7 mph N7.6 kmh N 16.0 mph25.7 kmh 30.36 in1028.1 mb 0.00 in0.0 mm 0.00 in0.0 mm 0.00 in0.0 mm
08:44 AM 25.9°F-3.4°C 15.1°F-9.4°C 63% 5.4 mph N8.7 kmh N 12.0 mph19.3 kmh 30.36 in1028.1 mb 0.00 in0.0 mm 0.00 in0.0 mm 0.00 in0.0 mm
08:49 AM 26.0°F-3.3°C 15.1°F-9.4°C 63% 3.4 mph N5.5 kmh N 12.0 mph19.3 kmh 30.36 in1028.1 mb 0.00 in0.0 mm 0.00 in0.0 mm 0.00 in0.0 mm
08:54 AM 26.1°F-3.3°C 15.2°F-9.3°C 63% 3.4 mph N5.5 kmh N 12.0 mph19.3 kmh 30.35 in1027.8 mb 0.00 in0.0 mm 0.00 in0.0 mm 0.00 in0.0 mm
08:59 AM 26.2°F-3.2°C 15.4°F-9.2°C 63% 3.1 mph N5.0 kmh N 12.0 mph19.3 kmh 30.36 in1028.1 mb 0.00 in0.0 mm 0.00 in0.0 mm 0.00 in0.0 mm
09:04 AM 26.3°F-3.2°C 15.5°F-9.2°C 63% 2.6 mph NNW4.2 kmh NNW 12.0 mph19.3 kmh 30.36 in1028.1 mb 0.00 in0.0 mm 0.00 in0.0 mm 0.00 in0.0 mm
09:09 AM 26.3°F-3.2°C 15.5°F-9.2°C 63% 3.5 mph N5.6 kmh N 9.0 mph14.5 kmh 30.36 in1028.1 mb 0.00 in0.0 mm 0.00 in0.0 mm 0.00 in0.0 mm
09:14 AM 26.3°F-3.2°C 15.1°F-9.4°C 62% 4.8 mph N7.7 kmh N 10.0 mph16.1 kmh 30.37 in1028.4 mb 0.00 in0.0 mm 0.00 in0.0 mm 0.00 in0.0 mm
09:19 AM 26.3°F-3.2°C 15.1°F-9.4°C 62% 3.4 mph NNW5.5 kmh NNW 12.0 mph19.3 kmh 30.37 in1028.4 mb 0.00 in0.0 mm 0.00 in0.0 mm 0.00 in0.0 mm
09:24 AM 26.4°F-3.1°C 15.2°F-9.3°C 62% 4.1 mph NNW6.6 kmh NNW 12.0 mph19.3 kmh 30.37 in1028.4 mb 0.00 in0.0 mm 0.00 in0.0 mm 0.00 in0.0 mm
09:29 AM 26.5°F-3.1°C 14.9°F-9.5°C 61% 5.3 mph NNW8.5 kmh NNW 12.0 mph19.3 kmh 30.37 in1028.4 mb 0.00 in0.0 mm 0.00 in0.0 mm 0.00 in0.0 mm
09:34 AM 26.6°F-3.0°C 15.4°F-9.2°C 62% 4.8 mph NW7.7 kmh NW 12.0 mph19.3 kmh 30.38 in1028.8 mb 0.00 in0.0 mm 0.00 in0.0 mm 0.00 in0.0 mm
09:39 AM 26.7°F-2.9°C 15.1°F-9.4°C 61% 2.4 mph NW3.9 kmh NW 11.0 mph17.7 kmh 30.38 in1028.8 mb 0.00 in0.0 mm 0.00 in0.0 mm 0.00 in0.0 mm
09:44 AM 26.9°F-2.8°C 15.2°F-9.3°C 61% 2.9 mph N4.7 kmh N 11.0 mph17.7 kmh 30.39 in1029.1 mb 0.00 in0.0 mm 0.00 in0.0 mm 0.00 in0.0 mm
09:49 AM 27.0°F-2.8°C 15.0°F-9.4°C 60% 3.7 mph NW6.0 kmh NW 11.0 mph17.7 kmh 30.39 in1029.1 mb 0.00 in0.0 mm 0.00 in0.0 mm 0.00 in0.0 mm
09:54 AM 27.3°F-2.6°C 15.2°F-9.3°C 60% 3.7 mph NNW6.0 kmh NNW 11.0 mph17.7 kmh 30.40 in1029.5 mb 0.00 in0.0 mm 0.00 in0.0 mm 0.00 in0.0 mm
09:59 AM 27.5°F-2.5°C 15.0°F-9.4°C 59% 3.9 mph NNW6.3 kmh NNW 10.0 mph16.1 kmh 30.40 in1029.5 mb 0.00 in0.0 mm 0.00 in0.0 mm 0.00 in0.0 mm
10:04 AM 27.9°F-2.3°C 15.4°F-9.2°C 59% 2.4 mph NNW3.9 kmh NNW 10.0 mph16.1 kmh 30.41 in1029.8 mb 0.00 in0.0 mm 0.00 in0.0 mm 0.00 in0.0 mm
10:09 AM 27.8°F-2.3°C 14.9°F-9.5°C 58% 4.8 mph NW7.7 kmh NW 10.0 mph16.1 kmh 30.41 in1029.8 mb 0.00 in0.0 mm 0.00 in0.0 mm 0.00 in0.0 mm
10:14 AM 27.8°F-2.3°C 14.9°F-9.5°C 58% 4.0 mph NW6.4 kmh NW 10.0 mph16.1 kmh 30.41 in1029.8 mb 0.00 in0.0 mm 0.00 in0.0 mm 0.00 in0.0 mm
10:18 AM 28.0°F-2.2°C 15.1°F-9.4°C 58% 5.7 mph NW9.2 kmh NW 11.0 mph17.7 kmh 30.42 in1030.1 mb 0.00 in0.0 mm 0.00 in0.0 mm 0.00 in0.0 mm
10:23 AM 28.2°F-2.1°C 15.3°F-9.3°C 58% 3.4 mph NW5.5 kmh NW 11.0 mph17.7 kmh 30.42 in1030.1 mb 0.00 in0.0 mm 0.00 in0.0 mm 0.00 in0.0 mm
10:28 AM 28.3°F-2.1°C 15.0°F-9.4°C 57% 5.3 mph NNW8.5 kmh NNW 11.0 mph17.7 kmh 30.43 in1030.5 mb 0.00 in0.0 mm 0.00 in0.0 mm 0.00 in0.0 mm
10:33 AM 28.7°F-1.8°C 15.8°F-9.0°C 58% 3.1 mph NW5.0 kmh NW 11.0 mph17.7 kmh 30.43 in1030.5 mb 0.00 in0.0 mm 0.00 in0.0 mm 0.00 in0.0 mm
10:38 AM 28.8°F-1.8°C 15.5°F-9.2°C 57% 3.7 mph NNW6.0 kmh NNW 9.0 mph14.5 kmh 30.43 in1030.5 mb 0.00 in0.0 mm 0.00 in0.0 mm 0.00 in0.0 mm
10:43 AM 29.3°F-1.5°C 15.5°F-9.2°C 56% 3.5 mph N5.6 kmh N 9.0 mph14.5 kmh 30.43 in1030.5 mb 0.00 in0.0 mm 0.00 in0.0 mm 0.00 in0.0 mm
10:48 AM 29.7°F-1.3°C 15.5°F-9.2°C 55% 3.9 mph NNW6.3 kmh NNW 9.0 mph14.5 kmh 30.43 in1030.5 mb 0.00 in0.0 mm 0.00 in0.0 mm 0.00 in0.0 mm
10:53 AM 29.5°F-1.4°C 15.3°F-9.3°C 55% 4.6 mph NNW7.4 kmh NNW 9.0 mph14.5 kmh 30.44 in1030.8 mb 0.00 in0.0 mm 0.00 in0.0 mm 0.00 in0.0 mm
10:58 AM 29.8°F-1.2°C 16.0°F-8.9°C 56% 3.7 mph NW6.0 kmh NW 9.0 mph14.5 kmh 30.44 in1030.8 mb 0.00 in0.0 mm 0.00 in0.0 mm 0.00 in0.0 mm
11:03 AM 30.0°F-1.1°C 15.3°F-9.3°C 54% 3.5 mph NW5.6 kmh NW 9.0 mph14.5 kmh 30.45 in1031.2 mb 0.00 in0.0 mm 0.00 in0.0 mm 0.00 in0.0 mm
11:08 AM 30.2°F-1.0°C 15.5°F-9.2°C 54% 4.9 mph N7.9 kmh N 9.0 mph14.5 kmh 30.45 in1031.2 mb 0.00 in0.0 mm 0.00 in0.0 mm 0.00 in0.0 mm
11:13 AM 30.8°F-0.7°C 16.5°F-8.6°C 55% 3.6 mph NW5.8 kmh NW 9.0 mph14.5 kmh 30.46 in1031.5 mb 0.00 in0.0 mm 0.00 in0.0 mm 0.00 in0.0 mm
11:18 AM 30.9°F-0.6°C 15.7°F-9.1°C 53% 5.8 mph N9.3 kmh N 10.0 mph16.1 kmh 30.46 in1031.5 mb 0.00 in0.0 mm 0.00 in0.0 mm 0.00 in0.0 mm
11:23 AM 31.0°F-0.6°C 15.8°F-9.0°C 53% 6.1 mph N9.8 kmh N 10.0 mph16.1 kmh 30.46 in1031.5 mb 0.00 in0.0 mm 0.00 in0.0 mm 0.00 in0.0 mm
11:28 AM 31.3°F-0.4°C 16.1°F-8.8°C 53% 2.5 mph N4.0 kmh N 10.0 mph16.1 kmh 30.45 in1031.2 mb 0.00 in0.0 mm 0.00 in0.0 mm 0.00 in0.0 mm
11:33 AM 31.6°F-0.2°C 16.0°F-8.9°C 52% 3.1 mph N5.0 kmh N 10.0 mph16.1 kmh 30.46 in1031.5 mb 0.00 in0.0 mm 0.00 in0.0 mm 0.00 in0.0 mm
11:38 AM 32.0°F0.0°C 16.3°F-8.7°C 52% 2.0 mph N3.2 kmh N 10.0 mph16.1 kmh 30.46 in1031.5 mb 0.00 in0.0 mm 0.00 in0.0 mm 0.00 in0.0 mm
11:43 AM 32.4°F0.2°C 16.2°F-8.8°C 51% 3.9 mph NNE6.3 kmh NNE 9.0 mph14.5 kmh 30.46 in1031.5 mb 0.00 in0.0 mm 0.00 in0.0 mm 0.00 in0.0 mm
11:48 AM 32.4°F0.2°C 15.8°F-9.0°C 50% 4.8 mph 7.7 kmh 10.0 mph16.1 kmh 30.46 in1031.5 mb 0.00 in0.0 mm 0.00 in0.0 mm 0.00 in0.0 mm
11:53 AM 32.2°F0.1°C 16.0°F-8.9°C 51% 5.4 mph NE8.7 kmh NE 12.0 mph19.3 kmh 30.46 in1031.5 mb 0.00 in0.0 mm 0.00 in0.0 mm 0.00 in0.0 mm
11:58 AM 32.7°F0.4°C 16.1°F-8.8°C 50% 3.6 mph NE5.8 kmh NE 12.0 mph19.3 kmh 30.46 in1031.5 mb 0.00 in0.0 mm 0.00 in0.0 mm 0.00 in0.0 mm
12:03 PM 33.1°F0.6°C 16.0°F-8.9°C 49% 6.7 mph NE10.8 kmh NE 12.0 mph19.3 kmh 30.46 in1031.5 mb 0.00 in0.0 mm 0.00 in0.0 mm 0.00 in0.0 mm
12:08 PM 32.7°F0.4°C 16.0°F-8.9°C 50% 5.4 mph NE8.7 kmh NE 12.0 mph19.3 kmh 30.46 in1031.5 mb 0.00 in0.0 mm 0.00 in0.0 mm 0.00 in0.0 mm
12:13 PM 33.0°F0.6°C 16.8°F-8.4°C 51% 3.5 mph NE5.6 kmh NE 12.0 mph19.3 kmh 30.46 in1031.5 mb 0.00 in0.0 mm 0.00 in0.0 mm 0.00 in0.0 mm
12:18 PM 33.0°F0.6°C 15.8°F-9.0°C 49% 5.4 mph NE8.7 kmh NE 12.0 mph19.3 kmh 30.46 in1031.5 mb 0.00 in0.0 mm 0.00 in0.0 mm 0.00 in0.0 mm
12:23 PM 33.3°F0.7°C 16.1°F-8.8°C 49% 8.7 mph NE14.0 kmh NE 12.0 mph19.3 kmh 30.46 in1031.5 mb 0.00 in0.0 mm 0.00 in0.0 mm 0.00 in0.0 mm
12:28 PM 33.7°F0.9°C 17.0°F-8.3°C 50% 3.5 mph NNE5.6 kmh NNE 11.0 mph17.7 kmh 30.46 in1031.5 mb 0.00 in0.0 mm 0.00 in0.0 mm 0.00 in0.0 mm
12:33 PM 34.4°F1.3°C 16.1°F-8.8°C 47% 3.3 mph NE5.3 kmh NE 11.0 mph17.7 kmh 30.46 in1031.5 mb 0.00 in0.0 mm 0.00 in0.0 mm 0.00 in0.0 mm
12:38 PM 34.1°F1.2°C 15.9°F-8.9°C 47% 4.1 mph NE6.6 kmh NE 11.0 mph17.7 kmh 30.45 in1031.2 mb 0.00 in0.0 mm 0.00 in0.0 mm 0.00 in0.0 mm
12:43 PM 34.5°F1.4°C 17.2°F-8.2°C 49% 2.8 mph NNE4.5 kmh NNE 11.0 mph17.7 kmh 30.45 in1031.2 mb 0.00 in0.0 mm 0.00 in0.0 mm 0.00 in0.0 mm
12:48 PM 35.3°F1.8°C 18.0°F-7.8°C 49% 2.8 mph NE4.5 kmh NE 11.0 mph17.7 kmh 30.45 in1031.2 mb 0.00 in0.0 mm 0.00 in0.0 mm 0.00 in0.0 mm
12:53 PM 35.2°F1.8°C 16.4°F-8.7°C 46% 6.2 mph ENE10.0 kmh ENE 12.0 mph19.3 kmh 30.46 in1031.5 mb 0.00 in0.0 mm 0.00 in0.0 mm 0.00 in0.0 mm
12:58 PM 35.3°F1.8°C 16.5°F-8.6°C 46% 3.6 mph NE5.8 kmh NE 12.0 mph19.3 kmh 30.46 in1031.5 mb 0.00 in0.0 mm 0.00 in0.0 mm 0.00 in0.0 mm
01:03 PM 35.5°F1.9°C 16.6°F-8.6°C 46% 3.3 mph NNE5.3 kmh NNE 12.0 mph19.3 kmh 30.46 in1031.5 mb 0.00 in0.0 mm 0.00 in0.0 mm 0.00 in0.0 mm
01:08 PM 35.7°F2.1°C 16.8°F-8.4°C 46% 5.8 mph NE9.3 kmh NE 10.0 mph16.1 kmh 30.46 in1031.5 mb 0.00 in0.0 mm 0.00 in0.0 mm 0.00 in0.0 mm
01:13 PM 35.7°F2.1°C 16.8°F-8.4°C 46% 3.6 mph NE5.8 kmh NE 10.0 mph16.1 kmh 30.46 in1031.5 mb 0.00 in0.0 mm 0.00 in0.0 mm 0.00 in0.0 mm
01:18 PM 36.3°F2.4°C 17.5°F-8.1°C 46% 5.1 mph NE8.2 kmh NE 9.0 mph14.5 kmh 30.46 in1031.5 mb 0.00 in0.0 mm 0.00 in0.0 mm 0.00 in0.0 mm
01:23 PM 36.2°F2.3°C 16.2°F-8.8°C 44% 7.4 mph NE11.9 kmh NE 12.0 mph19.3 kmh 30.46 in1031.5 mb 0.00 in0.0 mm 0.00 in0.0 mm 0.00 in0.0 mm
01:28 PM 36.3°F2.4°C 16.8°F-8.4°C 45% 5.0 mph NE8.0 kmh NE 12.0 mph19.3 kmh 30.46 in1031.5 mb 0.00 in0.0 mm 0.00 in0.0 mm 0.00 in0.0 mm
01:33 PM 36.4°F2.4°C 17.5°F-8.1°C 46% 2.5 mph ENE4.0 kmh ENE 12.0 mph19.3 kmh 30.46 in1031.5 mb 0.00 in0.0 mm 0.00 in0.0 mm 0.00 in0.0 mm
01:38 PM 36.7°F2.6°C 17.2°F-8.2°C 45% 6.1 mph NE9.8 kmh NE 12.0 mph19.3 kmh 30.45 in1031.2 mb 0.00 in0.0 mm 0.00 in0.0 mm 0.00 in0.0 mm
01:43 PM 36.8°F2.7°C 17.3°F-8.2°C 45% 4.7 mph NNE7.6 kmh NNE 11.0 mph17.7 kmh 30.45 in1031.2 mb 0.00 in0.0 mm 0.00 in0.0 mm 0.00 in0.0 mm
01:48 PM 37.4°F3.0°C 17.9°F-7.8°C 45% 4.9 mph N7.9 kmh N 11.0 mph17.7 kmh 30.45 in1031.2 mb 0.00 in0.0 mm 0.00 in0.0 mm 0.00 in0.0 mm
01:53 PM 37.6°F3.1°C 17.5°F-8.1°C 44% 4.4 mph NE7.1 kmh NE 11.0 mph17.7 kmh 30.45 in1031.2 mb 0.00 in0.0 mm 0.00 in0.0 mm 0.00 in0.0 mm
01:58 PM 37.7°F3.2°C 17.7°F-7.9°C 44% 4.7 mph ENE7.6 kmh ENE 10.0 mph16.1 kmh 30.45 in1031.2 mb 0.00 in0.0 mm 0.00 in0.0 mm 0.00 in0.0 mm
02:03 PM 37.5°F3.1°C 18.6°F-7.4°C 46% 2.3 mph NE3.7 kmh NE 10.0 mph16.1 kmh 30.44 in1030.8 mb 0.00 in0.0 mm 0.00 in0.0 mm 0.00 in0.0 mm
02:08 PM 38.1°F3.4°C 18.5°F-7.5°C 45% 2.3 mph NW3.7 kmh NW 9.0 mph14.5 kmh 30.45 in1031.2 mb 0.00 in0.0 mm 0.00 in0.0 mm 0.00 in0.0 mm
02:13 PM 38.7°F3.7°C 18.5°F-7.5°C 44% 2.2 mph NNW3.5 kmh NNW 9.0 mph14.5 kmh 30.44 in1030.8 mb 0.00 in0.0 mm 0.00 in0.0 mm 0.00 in0.0 mm
02:18 PM 38.8°F3.8°C 18.0°F-7.8°C 43% 3.8 mph NE6.1 kmh NE 8.0 mph12.9 kmh 30.44 in1030.8 mb 0.00 in0.0 mm 0.00 in0.0 mm 0.00 in0.0 mm
02:23 PM 38.7°F3.7°C 18.1°F-7.7°C 43% 2.1 mph NNW3.4 kmh NNW 8.0 mph12.9 kmh 30.44 in1030.8 mb 0.00 in0.0 mm 0.00 in0.0 mm 0.00 in0.0 mm
02:28 PM 39.3°F4.1°C 18.5°F-7.5°C 43% 3.8 mph N6.1 kmh N 8.0 mph12.9 kmh 30.43 in1030.5 mb 0.00 in0.0 mm 0.00 in0.0 mm 0.00 in0.0 mm
02:33 PM 39.3°F4.1°C 17.9°F-7.8°C 42% 5.7 mph ENE9.2 kmh ENE 10.0 mph16.1 kmh 30.43 in1030.5 mb 0.00 in0.0 mm 0.00 in0.0 mm 0.00 in0.0 mm
02:38 PM 38.9°F3.8°C 18.3°F-7.6°C 43% 3.1 mph ENE5.0 kmh ENE 10.0 mph16.1 kmh 30.43 in1030.5 mb 0.00 in0.0 mm 0.00 in0.0 mm 0.00 in0.0 mm
02:43 PM 39.1°F3.9°C 17.8°F-7.9°C 42% 7.6 mph NE12.2 kmh NE 11.0 mph17.7 kmh 30.43 in1030.5 mb 0.00 in0.0 mm 0.00 in0.0 mm 0.00 in0.0 mm
02:48 PM 39.3°F4.1°C 18.5°F-7.5°C 43% 1.0 mph NE1.6 kmh NE 11.0 mph17.7 kmh 30.44 in1030.8 mb 0.00 in0.0 mm 0.00 in0.0 mm 0.00 in0.0 mm
02:53 PM 39.7°F4.3°C 18.9°F-7.3°C 43% 4.6 mph NNE7.4 kmh NNE 11.0 mph17.7 kmh 30.44 in1030.8 mb 0.00 in0.0 mm 0.00 in0.0 mm 0.00 in0.0 mm
02:58 PM 39.7°F4.3°C 19.0°F-7.2°C 43% 1.6 mph SE2.6 kmh SE 11.0 mph17.7 kmh 30.44 in1030.8 mb 0.00 in0.0 mm 0.00 in0.0 mm 0.00 in0.0 mm
03:03 PM 40.2°F4.6°C 19.3°F-7.1°C 43% 1.5 mph N2.4 kmh N 10.0 mph16.1 kmh 30.43 in1030.5 mb 0.00 in0.0 mm 0.00 in0.0 mm 0.00 in0.0 mm
03:08 PM 40.6°F4.8°C 19.1°F-7.2°C 42% 4.3 mph NE6.9 kmh NE 10.0 mph16.1 kmh 30.43 in1030.5 mb 0.00 in0.0 mm 0.00 in0.0 mm 0.00 in0.0 mm
03:13 PM 40.9°F4.9°C 19.4°F-7.0°C 42% 2.7 mph ENE4.3 kmh ENE 7.0 mph11.3 kmh 30.43 in1030.5 mb 0.00 in0.0 mm 0.00 in0.0 mm 0.00 in0.0 mm
03:17 PM 41.3°F5.2°C 19.3°F-7.1°C 41% 3.4 mph ENE5.5 kmh ENE 8.0 mph12.9 kmh 30.43 in1030.5 mb 0.00 in0.0 mm 0.00 in0.0 mm 0.00 in0.0 mm
03:22 PM 41.2°F5.1°C 18.5°F-7.5°C 40% 5.9 mph NE9.5 kmh NE 10.0 mph16.1 kmh 30.44 in1030.8 mb 0.00 in0.0 mm 0.00 in0.0 mm 0.00 in0.0 mm
03:27 PM 41.3°F5.2°C 19.2°F-7.1°C 41% 4.2 mph ENE6.8 kmh ENE 10.0 mph16.1 kmh 30.44 in1030.8 mb 0.00 in0.0 mm 0.00 in0.0 mm 0.00 in0.0 mm
03:32 PM 41.6°F5.3°C 18.9°F-7.3°C 40% 3.3 mph E5.3 kmh E 10.0 mph16.1 kmh 30.43 in1030.5 mb 0.00 in0.0 mm 0.00 in0.0 mm 0.00 in0.0 mm
03:37 PM 41.4°F5.2°C 19.4°F-7.0°C 41% 2.2 mph NNE3.5 kmh NNE 10.0 mph16.1 kmh 30.43 in1030.5 mb 0.00 in0.0 mm 0.00 in0.0 mm 0.00 in0.0 mm
03:42 PM 41.8°F5.4°C 19.0°F-7.2°C 40% 2.3 mph ENE3.7 kmh ENE 8.0 mph12.9 kmh 30.44 in1030.8 mb 0.00 in0.0 mm 0.00 in0.0 mm 0.00 in0.0 mm
03:47 PM 41.9°F5.5°C 18.5°F-7.5°C 39% 2.7 mph ESE4.3 kmh ESE 8.0 mph12.9 kmh 30.43 in1030.5 mb 0.00 in0.0 mm 0.00 in0.0 mm 0.00 in0.0 mm
03:52 PM 41.8°F5.4°C 18.6°F-7.4°C 39% 2.3 mph E3.7 kmh E 7.0 mph11.3 kmh 30.43 in1030.5 mb 0.00 in0.0 mm 0.00 in0.0 mm 0.00 in0.0 mm
03:57 PM 42.0°F5.6°C 18.6°F-7.4°C 39% 1.6 mph ESE2.6 kmh ESE 7.0 mph11.3 kmh 30.43 in1030.5 mb 0.00 in0.0 mm 0.00 in0.0 mm 0.00 in0.0 mm
04:02 PM 42.2°F5.7°C 18.8°F-7.3°C 39% 1.0 mph SSE1.6 kmh SSE 6.0 mph9.7 kmh 30.44 in1030.8 mb 0.00 in0.0 mm 0.00 in0.0 mm 0.00 in0.0 mm
04:07 PM 42.6°F5.9°C 19.8°F-6.8°C 40% 1.3 mph NE2.1 kmh NE 5.0 mph8.0 kmh 30.43 in1030.5 mb 0.00 in0.0 mm 0.00 in0.0 mm 0.00 in0.0 mm
04:12 PM 42.5°F5.8°C 19.1°F-7.2°C 39% 1.0 mph NE1.6 kmh NE 5.0 mph8.0 kmh 30.43 in1030.5 mb 0.00 in0.0 mm 0.00 in0.0 mm 0.00 in0.0 mm
04:17 PM 43.1°F6.2°C 20.2°F-6.6°C 40% 1.5 mph E2.4 kmh E 5.0 mph8.0 kmh 30.43 in1030.5 mb 0.00 in0.0 mm 0.00 in0.0 mm 0.00 in0.0 mm
04:22 PM 43.4°F6.3°C 19.9°F-6.7°C 39% 2.6 mph NE4.2 kmh NE 5.0 mph8.0 kmh 30.43 in1030.5 mb 0.00 in0.0 mm 0.00 in0.0 mm 0.00 in0.0 mm
04:27 PM 43.2°F6.2°C 19.1°F-7.2°C 38% 3.5 mph NE5.6 kmh NE 8.0 mph12.9 kmh 30.43 in1030.5 mb 0.00 in0.0 mm 0.00 in0.0 mm 0.00 in0.0 mm
04:32 PM 43.1°F6.2°C 19.2°F-7.1°C 38% 2.0 mph ESE3.2 kmh ESE 8.0 mph12.9 kmh 30.43 in1030.5 mb 0.00 in0.0 mm 0.00 in0.0 mm 0.00 in0.0 mm
04:37 PM 43.2°F6.2°C 19.1°F-7.2°C 38% 2.5 mph NE4.0 kmh NE 8.0 mph12.9 kmh 30.43 in1030.5 mb 0.00 in0.0 mm 0.00 in0.0 mm 0.00 in0.0 mm
04:42 PM 43.6°F6.4°C 19.4°F-7.0°C 38% 3.1 mph NE5.0 kmh NE 8.0 mph12.9 kmh 30.44 in1030.8 mb 0.00 in0.0 mm 0.00 in0.0 mm 0.00 in0.0 mm
04:47 PM 43.3°F6.3°C 19.2°F-7.1°C 38% 3.1 mph NE5.0 kmh NE 7.0 mph11.3 kmh 30.44 in1030.8 mb 0.00 in0.0 mm 0.00 in0.0 mm 0.00 in0.0 mm
04:52 PM 43.5°F6.4°C 19.5°F-6.9°C 38% 3.2 mph NE5.1 kmh NE 7.0 mph11.3 kmh 30.43 in1030.5 mb 0.00 in0.0 mm 0.00 in0.0 mm 0.00 in0.0 mm
04:58 PM 43.6°F6.4°C 20.1°F-6.6°C 39% 4.3 mph E6.9 kmh E 7.0 mph11.3 kmh 30.44 in1030.8 mb 0.00 in0.0 mm 0.00 in0.0 mm 0.00 in0.0 mm
05:02 PM 43.6°F6.4°C 19.4°F-7.0°C 38% 2.6 mph ESE4.2 kmh ESE 7.0 mph11.3 kmh 30.44 in1030.8 mb 0.00 in0.0 mm 0.00 in0.0 mm 0.00 in0.0 mm
05:08 PM 43.5°F6.4°C 20.0°F-6.7°C 39% 2.3 mph ESE3.7 kmh ESE 7.0 mph11.3 kmh 30.44 in1030.8 mb 0.00 in0.0 mm 0.00 in0.0 mm 0.00 in0.0 mm
05:12 PM 43.7°F6.5°C 19.7°F-6.8°C 38% 4.7 mph E7.6 kmh E 10.0 mph16.1 kmh 30.44 in1030.8 mb 0.00 in0.0 mm 0.00 in0.0 mm 0.00 in0.0 mm
05:18 PM 43.4°F6.3°C 19.3°F-7.1°C 38% 2.6 mph ESE4.2 kmh ESE 10.0 mph16.1 kmh 30.44 in1030.8 mb 0.00 in0.0 mm 0.00 in0.0 mm 0.00 in0.0 mm
05:23 PM 43.6°F6.4°C 20.1°F-6.6°C 39% 4.6 mph E7.4 kmh E 10.0 mph16.1 kmh 30.44 in1030.8 mb 0.00 in0.0 mm 0.00 in0.0 mm 0.00 in0.0 mm
05:28 PM 43.4°F6.3°C 20.5°F-6.4°C 40% 1.9 mph E3.1 kmh E 10.0 mph16.1 kmh 30.44 in1030.8 mb 0.00 in0.0 mm 0.00 in0.0 mm 0.00 in0.0 mm
05:33 PM 43.6°F6.4°C 20.1°F-6.6°C 39% 3.9 mph NE6.3 kmh NE 7.0 mph11.3 kmh 30.44 in1030.8 mb 0.00 in0.0 mm 0.00 in0.0 mm 0.00 in0.0 mm
05:38 PM 43.6°F6.4°C 20.2°F-6.6°C 39% 4.4 mph ENE7.1 kmh ENE 7.0 mph11.3 kmh 30.44 in1030.8 mb 0.00 in0.0 mm 0.00 in0.0 mm 0.00 in0.0 mm
05:43 PM 43.6°F6.4°C 20.1°F-6.6°C 39% 3.1 mph E5.0 kmh E 7.0 mph11.3 kmh 30.44 in1030.8 mb 0.00 in0.0 mm 0.00 in0.0 mm 0.00 in0.0 mm
05:48 PM 43.7°F6.5°C 20.1°F-6.6°C 39% 2.8 mph ENE4.5 kmh ENE 7.0 mph11.3 kmh 30.44 in1030.8 mb 0.00 in0.0 mm 0.00 in0.0 mm 0.00 in0.0 mm
05:53 PM 43.8°F6.6°C 19.6°F-6.9°C 38% 2.7 mph ENE4.3 kmh ENE 7.0 mph11.3 kmh 30.44 in1030.8 mb 0.00 in0.0 mm 0.00 in0.0 mm 0.00 in0.0 mm
05:58 PM 43.6°F6.4°C 19.6°F-6.9°C 38% 2.4 mph ENE3.9 kmh ENE 8.0 mph12.9 kmh 30.44 in1030.8 mb 0.00 in0.0 mm 0.00 in0.0 mm 0.00 in0.0 mm
06:03 PM 43.6°F6.4°C 20.1°F-6.6°C 39% 2.5 mph NE4.0 kmh NE 8.0 mph12.9 kmh 30.44 in1030.8 mb 0.00 in0.0 mm 0.00 in0.0 mm 0.00 in0.0 mm
06:08 PM 43.6°F6.4°C 19.4°F-7.0°C 38% 3.2 mph NE5.1 kmh NE 8.0 mph12.9 kmh 30.44 in1030.8 mb 0.00 in0.0 mm 0.00 in0.0 mm 0.00 in0.0 mm
06:13 PM 43.6°F6.4°C 20.1°F-6.6°C 39% 2.3 mph NE3.7 kmh NE 8.0 mph12.9 kmh 30.44 in1030.8 mb 0.00 in0.0 mm 0.00 in0.0 mm 0.00 in0.0 mm
06:18 PM 43.6°F6.4°C 19.4°F-7.0°C 38% 2.8 mph ENE4.5 kmh ENE 6.0 mph9.7 kmh 30.44 in1030.8 mb 0.00 in0.0 mm 0.00 in0.0 mm 0.00 in0.0 mm
06:23 PM 43.5°F6.4°C 20.0°F-6.7°C 39% 1.5 mph ENE2.4 kmh ENE 6.0 mph9.7 kmh 30.44 in1030.8 mb 0.00 in0.0 mm 0.00 in0.0 mm 0.00 in0.0 mm
06:28 PM 43.5°F6.4°C 20.0°F-6.7°C 39% 2.1 mph E3.4 kmh E 5.0 mph8.0 kmh 30.44 in1030.8 mb 0.00 in0.0 mm 0.00 in0.0 mm 0.00 in0.0 mm
06:33 PM 43.4°F6.3°C 19.9°F-6.7°C 39% 2.6 mph E4.2 kmh E 5.0 mph8.0 kmh 30.44 in1030.8 mb 0.00 in0.0 mm 0.00 in0.0 mm 0.00 in0.0 mm
06:38 PM 43.3°F6.3°C 20.0°F-6.7°C 39% 2.6 mph E4.2 kmh E 5.0 mph8.0 kmh 30.44 in1030.8 mb 0.00 in0.0 mm 0.00 in0.0 mm 0.00 in0.0 mm
06:43 PM 43.2°F6.2°C 19.7°F-6.8°C 39% 1.6 mph E2.6 kmh E 5.0 mph8.0 kmh 30.44 in1030.8 mb 0.00 in0.0 mm 0.00 in0.0 mm 0.00 in0.0 mm
06:48 PM 43.1°F6.2°C 20.4°F-6.4°C 40% 1.6 mph E2.6 kmh E 5.0 mph8.0 kmh 30.44 in1030.8 mb 0.00 in0.0 mm 0.00 in0.0 mm 0.00 in0.0 mm
06:53 PM 42.9°F6.1°C 20.0°F-6.7°C 40% 1.4 mph ENE2.3 kmh ENE 4.0 mph6.4 kmh 30.44 in1030.8 mb 0.00 in0.0 mm 0.00 in0.0 mm 0.00 in0.0 mm
06:58 PM 42.7°F5.9°C 20.4°F-6.4°C 41% 1.0 mph ENE1.6 kmh ENE 3.0 mph4.8 kmh 30.44 in1030.8 mb 0.00 in0.0 mm 0.00 in0.0 mm 0.00 in0.0 mm
07:03 PM 42.5°F5.8°C 20.3°F-6.5°C 41% 1.2 mph E1.9 kmh E 3.0 mph4.8 kmh 30.44 in1030.8 mb 0.00 in0.0 mm 0.00 in0.0 mm 0.00 in0.0 mm
07:08 PM 42.3°F5.7°C 20.1°F-6.6°C 41% 1.4 mph ENE2.3 kmh ENE 2.0 mph3.2 kmh 30.44 in1030.8 mb 0.00 in0.0 mm 0.00 in0.0 mm 0.00 in0.0 mm
07:13 PM 42.3°F5.7°C 20.7°F-6.3°C 42% 1.0 mph ENE1.6 kmh ENE 3.0 mph4.8 kmh 30.45 in1031.2 mb 0.00 in0.0 mm 0.00 in0.0 mm 0.00 in0.0 mm
07:18 PM 42.1°F5.6°C 20.5°F-6.4°C 42% 1.5 mph E2.4 kmh E 3.0 mph4.8 kmh 30.45 in1031.2 mb 0.00 in0.0 mm 0.00 in0.0 mm 0.00 in0.0 mm
07:23 PM 41.9°F5.5°C 21.0°F-6.1°C 43% 1.5 mph ENE2.4 kmh ENE 3.0 mph4.8 kmh 30.45 in1031.2 mb 0.00 in0.0 mm 0.00 in0.0 mm 0.00 in0.0 mm
07:28 PM 41.7°F5.4°C 21.2°F-6.0°C 44% 1.5 mph E2.4 kmh E 3.0 mph4.8 kmh 30.46 in1031.5 mb 0.00 in0.0 mm 0.00 in0.0 mm 0.00 in0.0 mm
07:33 PM 41.5°F5.3°C 21.6°F-5.8°C 45% 1.1 mph E1.8 kmh E 3.0 mph4.8 kmh 30.46 in1031.5 mb 0.00 in0.0 mm 0.00 in0.0 mm 0.00 in0.0 mm
07:38 PM 41.4°F5.2°C 21.5°F-5.8°C 45% 1.1 mph ENE1.8 kmh ENE 3.0 mph4.8 kmh 30.46 in1031.5 mb 0.00 in0.0 mm 0.00 in0.0 mm 0.00 in0.0 mm
07:43 PM 41.3°F5.2°C 21.4°F-5.9°C 45% 1.3 mph E2.1 kmh E 3.0 mph4.8 kmh 30.45 in1031.2 mb 0.00 in0.0 mm 0.00 in0.0 mm 0.00 in0.0 mm
07:48 PM 41.1°F5.1°C 21.8°F-5.7°C 46% 1.4 mph ENE2.3 kmh ENE 3.0 mph4.8 kmh 30.45 in1031.2 mb 0.00 in0.0 mm 0.00 in0.0 mm 0.00 in0.0 mm
07:53 PM 40.9°F4.9°C 21.6°F-5.8°C 46% 1.8 mph ENE2.9 kmh ENE 4.0 mph6.4 kmh 30.45 in1031.2 mb 0.00 in0.0 mm 0.00 in0.0 mm 0.00 in0.0 mm
07:58 PM 40.6°F4.8°C 21.9°F-5.6°C 47% 2.1 mph ENE3.4 kmh ENE 4.0 mph6.4 kmh 30.46 in1031.5 mb 0.00 in0.0 mm 0.00 in0.0 mm 0.00 in0.0 mm
08:03 PM 40.4°F4.7°C 22.2°F-5.4°C 48% 1.0 mph ENE1.6 kmh ENE 4.0 mph6.4 kmh 30.46 in1031.5 mb 0.00 in0.0 mm 0.00 in0.0 mm 0.00 in0.0 mm
08:08 PM 40.2°F4.6°C 22.5°F-5.3°C 49% 1.2 mph E1.9 kmh E 4.0 mph6.4 kmh 30.46 in1031.5 mb 0.00 in0.0 mm 0.00 in0.0 mm 0.00 in0.0 mm
08:13 PM 40.0°F4.4°C 22.3°F-5.4°C 49% 1.7 mph E2.7 kmh E 4.0 mph6.4 kmh 30.45 in1031.2 mb 0.00 in0.0 mm 0.00 in0.0 mm 0.00 in0.0 mm
08:17 PM 39.8°F4.3°C 22.7°F-5.2°C 50% 2.1 mph E3.4 kmh E 4.0 mph6.4 kmh 30.45 in1031.2 mb 0.00 in0.0 mm 0.00 in0.0 mm 0.00 in0.0 mm
08:22 PM 39.6°F4.2°C 22.4°F-5.3°C 50% 1.9 mph E3.1 kmh E 6.0 mph9.7 kmh 30.46 in1031.5 mb 0.00 in0.0 mm 0.00 in0.0 mm 0.00 in0.0 mm
08:27 PM 39.5°F4.2°C 22.8°F-5.1°C 51% 1.6 mph E2.6 kmh E 6.0 mph9.7 kmh 30.46 in1031.5 mb 0.00 in0.0 mm 0.00 in0.0 mm 0.00 in0.0 mm
08:32 PM 39.3°F4.1°C 22.6°F-5.2°C 51% 2.1 mph ENE3.4 kmh ENE 6.0 mph9.7 kmh 30.46 in1031.5 mb 0.00 in0.0 mm 0.00 in0.0 mm 0.00 in0.0 mm
08:37 PM 39.3°F4.1°C 22.6°F-5.2°C 51% 1.6 mph E2.6 kmh E 4.0 mph6.4 kmh 30.46 in1031.5 mb 0.00 in0.0 mm 0.00 in0.0 mm 0.00 in0.0 mm
08:42 PM 39.2°F4.0°C 22.5°F-5.3°C 51% 1.6 mph ENE2.6 kmh ENE 4.0 mph6.4 kmh 30.46 in1031.5 mb 0.00 in0.0 mm 0.00 in0.0 mm 0.00 in0.0 mm
08:47 PM 39.2°F4.0°C 22.5°F-5.3°C 51% 2.0 mph E3.2 kmh E 4.0 mph6.4 kmh 30.46 in1031.5 mb 0.00 in0.0 mm 0.00 in0.0 mm 0.00 in0.0 mm
08:52 PM 39.0°F3.9°C 22.4°F-5.3°C 51% 1.7 mph ENE2.7 kmh ENE 4.0 mph6.4 kmh 30.46 in1031.5 mb 0.00 in0.0 mm 0.00 in0.0 mm 0.00 in0.0 mm
08:57 PM 38.9°F3.8°C 22.7°F-5.2°C 52% 2.2 mph ENE3.5 kmh ENE 4.0 mph6.4 kmh 30.45 in1031.2 mb 0.00 in0.0 mm 0.00 in0.0 mm 0.00 in0.0 mm
09:02 PM 38.8°F3.8°C 22.6°F-5.2°C 52% 1.7 mph ENE2.7 kmh ENE 4.0 mph6.4 kmh 30.45 in1031.2 mb 0.00 in0.0 mm 0.00 in0.0 mm 0.00 in0.0 mm
09:07 PM 38.7°F3.7°C 22.6°F-5.2°C 52% 1.6 mph E2.6 kmh E 4.0 mph6.4 kmh 30.46 in1031.5 mb 0.00 in0.0 mm 0.00 in0.0 mm 0.00 in0.0 mm
09:12 PM 38.6°F3.7°C 22.5°F-5.3°C 52% 1.7 mph ENE2.7 kmh ENE 4.0 mph6.4 kmh 30.46 in1031.5 mb 0.00 in0.0 mm 0.00 in0.0 mm 0.00 in0.0 mm
09:17 PM 38.6°F3.7°C 22.9°F-5.1°C 53% 1.1 mph ENE1.8 kmh ENE 4.0 mph6.4 kmh 30.46 in1031.5 mb 0.00 in0.0 mm 0.00 in0.0 mm 0.00 in0.0 mm
09:22 PM 38.5°F3.6°C 22.8°F-5.1°C 53% 1.3 mph ENE2.1 kmh ENE 3.0 mph4.8 kmh 30.46 in1031.5 mb 0.00 in0.0 mm 0.00 in0.0 mm 0.00 in0.0 mm
09:27 PM 38.4°F3.6°C 22.7°F-5.2°C 53% 1.3 mph E2.1 kmh E 3.0 mph4.8 kmh 30.46 in1031.5 mb 0.00 in0.0 mm 0.00 in0.0 mm 0.00 in0.0 mm
09:32 PM 38.4°F3.6°C 23.2°F-4.9°C 54% 1.6 mph ENE2.6 kmh ENE 3.0 mph4.8 kmh 30.46 in1031.5 mb 0.00 in0.0 mm 0.00 in0.0 mm 0.00 in0.0 mm
09:37 PM 38.4°F3.6°C 23.2°F-4.9°C 54% 1.5 mph ENE2.4 kmh ENE 3.0 mph4.8 kmh 30.47 in1031.8 mb 0.00 in0.0 mm 0.00 in0.0 mm 0.00 in0.0 mm
09:42 PM 38.3°F3.5°C 23.1°F-4.9°C 54% 1.7 mph ENE2.7 kmh ENE 3.0 mph4.8 kmh 30.47 in1031.8 mb 0.00 in0.0 mm 0.00 in0.0 mm 0.00 in0.0 mm
09:47 PM 38.2°F3.4°C 23.5°F-4.7°C 55% 1.0 mph ENE1.6 kmh ENE 3.0 mph4.8 kmh 30.47 in1031.8 mb 0.00 in0.0 mm 0.00 in0.0 mm 0.00 in0.0 mm
09:52 PM 38.0°F3.3°C 23.3°F-4.8°C 55% 1.4 mph ENE2.3 kmh ENE 3.0 mph4.8 kmh 30.47 in1031.8 mb 0.00 in0.0 mm 0.00 in0.0 mm 0.00 in0.0 mm
09:57 PM 37.9°F3.3°C 23.2°F-4.9°C 55% 1.3 mph ENE2.1 kmh ENE 2.0 mph3.2 kmh 30.47 in1031.8 mb 0.00 in0.0 mm 0.00 in0.0 mm 0.00 in0.0 mm
10:02 PM 37.9°F3.3°C 23.2°F-4.9°C 55% 1.3 mph ENE2.1 kmh ENE 2.0 mph3.2 kmh 30.47 in1031.8 mb 0.00 in0.0 mm 0.00 in0.0 mm 0.00 in0.0 mm
10:07 PM 37.8°F3.2°C 23.5°F-4.7°C 56% 1.8 mph ENE2.9 kmh ENE 3.0 mph4.8 kmh 30.47 in1031.8 mb 0.00 in0.0 mm 0.00 in0.0 mm 0.00 in0.0 mm
10:12 PM 37.7°F3.2°C 23.4°F-4.8°C 56% 2.0 mph ENE3.2 kmh ENE 3.0 mph4.8 kmh 30.47 in1031.8 mb 0.00 in0.0 mm 0.00 in0.0 mm 0.00 in0.0 mm
10:17 PM 37.6°F3.1°C 23.3°F-4.8°C 56% 1.8 mph ENE2.9 kmh ENE 4.0 mph6.4 kmh 30.47 in1031.8 mb 0.00 in0.0 mm 0.00 in0.0 mm 0.00 in0.0 mm
10:22 PM 37.5°F3.1°C 23.2°F-4.9°C 56% 3.1 mph ENE5.0 kmh ENE 5.0 mph8.0 kmh 30.47 in1031.8 mb 0.00 in0.0 mm 0.00 in0.0 mm 0.00 in0.0 mm
10:27 PM 37.2°F2.9°C 23.4°F-4.8°C 57% 2.2 mph E3.5 kmh E 5.0 mph8.0 kmh 30.47 in1031.8 mb 0.00 in0.0 mm 0.00 in0.0 mm 0.00 in0.0 mm
10:32 PM 37.0°F2.8°C 23.2°F-4.9°C 57% 2.4 mph E3.9 kmh E 5.0 mph8.0 kmh 30.47 in1031.8 mb 0.00 in0.0 mm 0.00 in0.0 mm 0.00 in0.0 mm
10:37 PM 37.0°F2.8°C 22.3°F-5.4°C 55% 3.8 mph E6.1 kmh E 7.0 mph11.3 kmh 30.47 in1031.8 mb 0.00 in0.0 mm 0.00 in0.0 mm 0.00 in0.0 mm
10:42 PM 36.9°F2.7°C 22.2°F-5.4°C 55% 1.9 mph E3.1 kmh E 7.0 mph11.3 kmh 30.47 in1031.8 mb 0.00 in0.0 mm 0.00 in0.0 mm 0.00 in0.0 mm
10:47 PM 37.0°F2.8°C 21.9°F-5.6°C 54% 2.5 mph E4.0 kmh E 7.0 mph11.3 kmh 30.47 in1031.8 mb 0.00 in0.0 mm 0.00 in0.0 mm 0.00 in0.0 mm
10:52 PM 36.8°F2.7°C 21.2°F-6.0°C 53% 2.4 mph E3.9 kmh E 7.0 mph11.3 kmh 30.47 in1031.8 mb 0.00 in0.0 mm 0.00 in0.0 mm 0.00 in0.0 mm
10:57 PM 36.8°F2.7°C 21.2°F-6.0°C 53% 3.0 mph E4.8 kmh E 6.0 mph9.7 kmh 30.47 in1031.8 mb 0.00 in0.0 mm 0.00 in0.0 mm 0.00 in0.0 mm
11:02 PM 36.6°F2.6°C 21.1°F-6.1°C 53% 3.5 mph E5.6 kmh E 6.0 mph9.7 kmh 30.47 in1031.8 mb 0.00 in0.0 mm 0.00 in0.0 mm 0.00 in0.0 mm
11:07 PM 36.4°F2.4°C 20.9°F-6.2°C 53% 2.3 mph E3.7 kmh E 6.0 mph9.7 kmh 30.47 in1031.8 mb 0.00 in0.0 mm 0.00 in0.0 mm 0.00 in0.0 mm
11:12 PM 36.3°F2.4°C 20.8°F-6.2°C 53% 2.7 mph E4.3 kmh E 6.0 mph9.7 kmh 30.47 in1031.8 mb 0.00 in0.0 mm 0.00 in0.0 mm 0.00 in0.0 mm
11:17 PM 36.0°F2.2°C 20.9°F-6.2°C 54% 2.4 mph E3.9 kmh E 6.0 mph9.7 kmh 30.47 in1031.8 mb 0.00 in0.0 mm 0.00 in0.0 mm 0.00 in0.0 mm
11:22 PM 35.9°F2.2°C 20.9°F-6.2°C 54% 1.5 mph E2.4 kmh E 5.0 mph8.0 kmh 30.47 in1031.8 mb 0.00 in0.0 mm 0.00 in0.0 mm 0.00 in0.0 mm
11:27 PM 35.7°F2.1°C 20.7°F-6.3°C 54% 1.3 mph E2.1 kmh E 5.0 mph8.0 kmh 30.47 in1031.8 mb 0.00 in0.0 mm 0.00 in0.0 mm 0.00 in0.0 mm
11:32 PM 35.5°F1.9°C 20.5°F-6.4°C 54% 1.4 mph E2.3 kmh E 5.0 mph8.0 kmh 30.47 in1031.8 mb 0.00 in0.0 mm 0.00 in0.0 mm 0.00 in0.0 mm
11:37 PM 35.4°F1.9°C 20.4°F-6.4°C 54% 1.5 mph E2.4 kmh E 4.0 mph6.4 kmh 30.48 in1032.2 mb 0.00 in0.0 mm 0.00 in0.0 mm 0.00 in0.0 mm
11:42 PM 35.3°F1.8°C 20.3°F-6.5°C 54% 1.5 mph E2.4 kmh E 4.0 mph6.4 kmh 30.48 in1032.2 mb 0.00 in0.0 mm 0.00 in0.0 mm 0.00 in0.0 mm
11:47 PM 35.2°F1.8°C 20.2°F-6.6°C 54% 1.2 mph E1.9 kmh E 4.0 mph6.4 kmh 30.48 in1032.2 mb 0.00 in0.0 mm 0.00 in0.0 mm 0.00 in0.0 mm
11:52 PM 35.1°F1.7°C 20.1°F-6.6°C 54% 1.7 mph E2.7 kmh E 3.0 mph4.8 kmh 30.48 in1032.2 mb 0.00 in0.0 mm 0.00 in0.0 mm 0.00 in0.0 mm
11:57 PM 35.1°F1.7°C 20.1°F-6.6°C 54% 1.4 mph E2.3 kmh E 5.0 mph8.0 kmh 30.48 in1032.2 mb 0.00 in0.0 mm 0.00 in0.0 mm 0.00 in0.0 mm